sensor_id;sensor_type;location;lat;lon;timestamp;pressure;altitude;pressure_sealevel;temperature;humidity
82311;BME280;72015;51.330;12.316;2024-01-06T00:04:14;99114.69;;;4.27;54.43
82311;BME280;72015;51.330;12.316;2024-01-06T00:08:38;99117.21;;;4.11;56.22
82311;BME280;72015;51.330;12.316;2024-01-06T00:13:02;99118.87;;;3.97;56.01
82311;BME280;72015;51.330;12.316;2024-01-06T00:17:26;99120.79;;;3.84;56.31
82311;BME280;72015;51.330;12.316;2024-01-06T00:21:50;99122.09;;;3.69;56.45
82311;BME280;72015;51.330;12.316;2024-01-06T00:26:14;99123.03;;;3.61;56.19
82311;BME280;72015;51.330;12.316;2024-01-06T00:30:38;99122.64;;;3.61;55.62
82311;BME280;72015;51.330;12.316;2024-01-06T00:35:02;99123.13;;;3.61;55.46
82311;BME280;72015;51.330;12.316;2024-01-06T00:39:26;99122.91;;;3.65;55.03
82311;BME280;72015;51.330;12.316;2024-01-06T00:43:50;99123.72;;;3.70;54.36
82311;BME280;72015;51.330;12.316;2024-01-06T00:48:14;99123.53;;;3.78;54.18
82311;BME280;72015;51.330;12.316;2024-01-06T00:52:38;99124.03;;;3.77;54.82
82311;BME280;72015;51.330;12.316;2024-01-06T00:57:02;99124.75;;;3.74;55.15
82311;BME280;72015;51.330;12.316;2024-01-06T01:01:26;99126.40;;;3.73;54.77
82311;BME280;72015;51.330;12.316;2024-01-06T01:05:50;99127.42;;;3.72;54.69
82311;BME280;72015;51.330;12.316;2024-01-06T01:10:14;99129.58;;;3.70;55.01
82311;BME280;72015;51.330;12.316;2024-01-06T01:14:38;99131.70;;;3.66;55.65
82311;BME280;72015;51.330;12.316;2024-01-06T01:19:02;99134.33;;;3.61;55.50
82311;BME280;72015;51.330;12.316;2024-01-06T01:23:26;99136.80;;;3.56;55.60
82311;BME280;72015;51.330;12.316;2024-01-06T01:27:50;99138.59;;;3.51;55.71
82311;BME280;72015;51.330;12.316;2024-01-06T01:32:14;99141.20;;;3.47;55.78
82311;BME280;72015;51.330;12.316;2024-01-06T01:36:38;99143.36;;;3.46;55.44
82311;BME280;72015;51.330;12.316;2024-01-06T01:41:02;99145.09;;;3.46;55.31
82311;BME280;72015;51.330;12.316;2024-01-06T01:45:26;99146.84;;;3.45;55.31
82311;BME280;72015;51.330;12.316;2024-01-06T01:49:50;99148.00;;;3.39;55.83
82311;BME280;72015;51.330;12.316;2024-01-06T01:54:14;99149.37;;;3.35;55.65
82311;BME280;72015;51.330;12.316;2024-01-06T01:58:38;99151.03;;;3.25;56.43
82311;BME280;72015;51.330;12.316;2024-01-06T02:03:03;99153.27;;;3.18;56.30
82311;BME280;72015;51.330;12.316;2024-01-06T02:07:26;99157.28;;;3.13;56.20
82311;BME280;72015;51.330;12.316;2024-01-06T02:11:50;99161.44;;;3.09;56.10
82311;BME280;72015;51.330;12.316;2024-01-06T02:16:14;99166.02;;;2.91;57.86
82311;BME280;72015;51.330;12.316;2024-01-06T02:20:38;99168.81;;;2.77;57.91
82311;BME280;72015;51.330;12.316;2024-01-06T02:25:03;99171.37;;;2.64;58.33
82311;BME280;72015;51.330;12.316;2024-01-06T02:29:26;99173.19;;;2.56;58.12
82311;BME280;72015;51.330;12.316;2024-01-06T02:33:50;99175.05;;;2.50;57.83
82311;BME280;72015;51.330;12.316;2024-01-06T02:38:14;99178.16;;;2.49;57.21
82311;BME280;72015;51.330;12.316;2024-01-06T02:42:38;99180.55;;;2.51;56.77
82311;BME280;72015;51.330;12.316;2024-01-06T02:47:02;99184.54;;;2.56;56.21
82311;BME280;72015;51.330;12.316;2024-01-06T02:51:26;99187.50;;;2.65;55.75
82311;BME280;72015;51.330;12.316;2024-01-06T02:55:50;99189.58;;;2.74;55.62
82311;BME280;72015;51.330;12.316;2024-01-06T03:00:15;99192.14;;;2.80;55.73
82311;BME280;72015;51.330;12.316;2024-01-06T03:04:38;99195.08;;;2.83;55.94
82311;BME280;72015;51.330;12.316;2024-01-06T03:09:02;99198.99;;;2.87;55.49
82311;BME280;72015;51.330;12.316;2024-01-06T03:13:26;99202.87;;;2.86;55.54
82311;BME280;72015;51.330;12.316;2024-01-06T03:17:50;99206.48;;;2.78;56.12
82311;BME280;72015;51.330;12.316;2024-01-06T03:22:14;99209.11;;;2.71;56.30
82311;BME280;72015;51.330;12.316;2024-01-06T03:26:38;99211.66;;;2.68;56.58
82311;BME280;72015;51.330;12.316;2024-01-06T03:31:02;99212.32;;;2.68;56.36
82311;BME280;72015;51.330;12.316;2024-01-06T03:35:26;99212.73;;;2.68;56.21
82311;BME280;72015;51.330;12.316;2024-01-06T03:39:50;99214.36;;;2.70;55.64
82311;BME280;72015;51.330;12.316;2024-01-06T03:44:14;99216.77;;;2.71;55.43
82311;BME280;72015;51.330;12.316;2024-01-06T03:48:38;99220.06;;;2.71;55.66
82311;BME280;72015;51.330;12.316;2024-01-06T03:53:02;99223.67;;;2.71;55.91
82311;BME280;72015;51.330;12.316;2024-01-06T03:57:26;99226.70;;;2.70;55.96
82311;BME280;72015;51.330;12.316;2024-01-06T04:01:50;99228.36;;;2.68;55.86
82311;BME280;72015;51.330;12.316;2024-01-06T04:06:14;99229.28;;;2.67;55.43
82311;BME280;72015;51.330;12.316;2024-01-06T04:10:38;99230.55;;;2.63;55.79
82311;BME280;72015;51.330;12.316;2024-01-06T04:15:02;99232.56;;;2.60;56.11
82311;BME280;72015;51.330;12.316;2024-01-06T04:19:26;99234.60;;;2.61;55.72
82311;BME280;72015;51.330;12.316;2024-01-06T04:23:50;99237.72;;;2.62;55.79
82311;BME280;72015;51.330;12.316;2024-01-06T04:28:14;99240.62;;;2.60;55.88
82311;BME280;72015;51.330;12.316;2024-01-06T04:32:38;99244.43;;;2.57;56.08
82311;BME280;72015;51.330;12.316;2024-01-06T04:37:02;99248.25;;;2.53;56.03
82311;BME280;72015;51.330;12.316;2024-01-06T04:41:26;99252.29;;;2.51;56.00
82311;BME280;72015;51.330;12.316;2024-01-06T04:45:50;99255.19;;;2.50;55.79
82311;BME280;72015;51.330;12.316;2024-01-06T04:50:14;99257.12;;;2.50;55.85
82311;BME280;72015;51.330;12.316;2024-01-06T04:54:38;99257.90;;;2.46;56.23
82311;BME280;72015;51.330;12.316;2024-01-06T04:59:02;99258.83;;;2.42;56.16
82311;BME280;72015;51.330;12.316;2024-01-06T05:03:26;99258.34;;;2.41;55.98
82311;BME280;72015;51.330;12.316;2024-01-06T05:07:50;99258.17;;;2.42;55.61
82311;BME280;72015;51.330;12.316;2024-01-06T05:12:14;99258.09;;;2.42;55.85
82311;BME280;72015;51.330;12.316;2024-01-06T05:16:38;99259.69;;;2.37;56.26
82311;BME280;72015;51.330;12.316;2024-01-06T05:21:03;99261.94;;;2.35;55.81
82311;BME280;72015;51.330;12.316;2024-01-06T05:25:26;99264.14;;;2.37;55.24
82311;BME280;72015;51.330;12.316;2024-01-06T05:29:50;99267.74;;;2.39;55.13
82311;BME280;72015;51.330;12.316;2024-01-06T05:34:15;99269.50;;;2.45;53.70
82311;BME280;72015;51.330;12.316;2024-01-06T05:38:38;99271.79;;;2.52;54.33
82311;BME280;72015;51.330;12.316;2024-01-06T05:43:03;99274.20;;;2.58;54.00
82311;BME280;72015;51.330;12.316;2024-01-06T05:47:26;99277.87;;;2.62;54.28
82311;BME280;72015;51.330;12.316;2024-01-06T05:51:50;99282.48;;;2.62;54.93
82311;BME280;72015;51.330;12.316;2024-01-06T06:00:38;99291.32;;;2.58;54.77
82311;BME280;72015;51.330;12.316;2024-01-06T06:05:03;99297.86;;;2.53;55.10
82311;BME280;72015;51.330;12.316;2024-01-06T06:09:27;99304.44;;;2.48;55.08
82311;BME280;72015;51.330;12.316;2024-01-06T06:13:50;99308.77;;;2.41;55.43
82311;BME280;72015;51.330;12.316;2024-01-06T06:18:14;99313.92;;;2.34;55.71
82311;BME280;72015;51.330;12.316;2024-01-06T06:22:38;99318.24;;;2.27;55.72
82311;BME280;72015;51.330;12.316;2024-01-06T06:27:03;99324.03;;;2.22;55.73
82311;BME280;72015;51.330;12.316;2024-01-06T06:31:26;99329.16;;;2.16;56.13
82311;BME280;72015;51.330;12.316;2024-01-06T06:35:50;99335.08;;;2.12;55.92
82311;BME280;72015;51.330;12.316;2024-01-06T06:40:14;99341.82;;;2.11;55.75
82311;BME280;72015;51.330;12.316;2024-01-06T06:44:38;99347.58;;;2.12;55.52
82311;BME280;72015;51.330;12.316;2024-01-06T06:49:02;99353.17;;;2.16;55.01
82311;BME280;72015;51.330;12.316;2024-01-06T06:53:26;99360.47;;;2.20;54.92
82311;BME280;72015;51.330;12.316;2024-01-06T06:57:50;99367.19;;;2.25;54.73
82311;BME280;72015;51.330;12.316;2024-01-06T07:02:14;99373.85;;;2.25;54.94
82311;BME280;72015;51.330;12.316;2024-01-06T07:06:38;99378.63;;;2.24;55.59
82311;BME280;72015;51.330;12.316;2024-01-06T07:11:03;99383.13;;;2.26;55.04
82311;BME280;72015;51.330;12.316;2024-01-06T07:15:26;99388.06;;;2.29;54.81
82311;BME280;72015;51.330;12.316;2024-01-06T07:19:50;99393.25;;;2.26;54.97
82311;BME280;72015;51.330;12.316;2024-01-06T07:24:14;99399.61;;;2.21;55.66
82311;BME280;72015;51.330;12.316;2024-01-06T07:28:38;99406.47;;;2.14;55.93
82311;BME280;72015;51.330;12.316;2024-01-06T07:33:02;99412.78;;;2.09;56.22
82311;BME280;72015;51.330;12.316;2024-01-06T07:37:26;99419.29;;;2.08;56.07
82311;BME280;72015;51.330;12.316;2024-01-06T07:41:50;99424.55;;;2.08;55.93
82311;BME280;72015;51.330;12.316;2024-01-06T07:46:14;99429.72;;;2.08;55.92
82311;BME280;72015;51.330;12.316;2024-01-06T07:50:38;99435.30;;;2.11;55.62
82311;BME280;72015;51.330;12.316;2024-01-06T07:55:02;99441.16;;;2.18;55.42
82311;BME280;72015;51.330;12.316;2024-01-06T07:59:26;99446.65;;;2.21;55.49
82311;BME280;72015;51.330;12.316;2024-01-06T08:03:50;99452.40;;;2.22;55.92
82311;BME280;72015;51.330;12.316;2024-01-06T08:08:14;99458.92;;;2.16;56.32
82311;BME280;72015;51.330;12.316;2024-01-06T08:12:38;99464.90;;;2.10;56.60
82311;BME280;72015;51.330;12.316;2024-01-06T08:17:02;99472.23;;;2.10;56.31
82311;BME280;72015;51.330;12.316;2024-01-06T08:21:26;99478.47;;;2.12;56.10
82311;BME280;72015;51.330;12.316;2024-01-06T08:25:50;99484.99;;;2.18;55.76
82311;BME280;72015;51.330;12.316;2024-01-06T08:30:14;99490.63;;;2.26;55.26
82311;BME280;72015;51.330;12.316;2024-01-06T08:34:38;99495.70;;;2.33;55.40
82311;BME280;72015;51.330;12.316;2024-01-06T08:39:02;99500.05;;;2.37;55.54
82311;BME280;72015;51.330;12.316;2024-01-06T08:43:26;99504.77;;;2.49;54.52
82311;BME280;72015;51.330;12.316;2024-01-06T08:47:50;99508.95;;;2.58;54.79
82311;BME280;72015;51.330;12.316;2024-01-06T08:52:14;99512.78;;;2.66;54.80
82311;BME280;72015;51.330;12.316;2024-01-06T08:56:38;99516.58;;;2.72;54.94
82311;BME280;72015;51.330;12.316;2024-01-06T09:01:02;99521.08;;;2.76;55.08
82311;BME280;72015;51.330;12.316;2024-01-06T09:05:26;99525.76;;;2.79;55.13
82311;BME280;72015;51.330;12.316;2024-01-06T09:09:50;99532.83;;;2.81;55.18
82311;BME280;72015;51.330;12.316;2024-01-06T09:14:15;99537.92;;;2.83;55.32
82311;BME280;72015;51.330;12.316;2024-01-06T09:18:38;99540.55;;;2.85;55.45
82311;BME280;72015;51.330;12.316;2024-01-06T09:23:02;99542.35;;;2.88;55.18
82311;BME280;72015;51.330;12.316;2024-01-06T09:27:26;99545.04;;;2.91;55.38
82311;BME280;72015;51.330;12.316;2024-01-06T09:31:50;99547.34;;;2.93;55.25
82311;BME280;72015;51.330;12.316;2024-01-06T09:36:14;99550.61;;;2.98;54.78
82311;BME280;72015;51.330;12.316;2024-01-06T09:40:42;99554.69;;;3.03;54.68
82311;BME280;72015;51.330;12.316;2024-01-06T09:45:02;99559.55;;;3.04;55.09
82311;BME280;72015;51.330;12.316;2024-01-06T09:49:26;99563.08;;;3.05;55.30
82311;BME280;72015;51.330;12.316;2024-01-06T09:53:54;99566.20;;;3.06;55.13
82311;BME280;72015;51.330;12.316;2024-01-06T09:58:14;99569.39;;;3.10;55.40
82311;BME280;72015;51.330;12.316;2024-01-06T10:02:38;99573.32;;;3.17;54.80
82311;BME280;72015;51.330;12.316;2024-01-06T10:07:02;99577.59;;;3.18;55.70
82311;BME280;72015;51.330;12.316;2024-01-06T10:11:26;99581.05;;;3.16;55.82
82311;BME280;72015;51.330;12.316;2024-01-06T10:15:50;99584.01;;;3.16;55.92
82311;BME280;72015;51.330;12.316;2024-01-06T10:20:14;99584.74;;;3.20;55.61
82311;BME280;72015;51.330;12.316;2024-01-06T10:24:38;99586.36;;;3.25;55.76
82311;BME280;72015;51.330;12.316;2024-01-06T10:29:02;99587.47;;;3.36;54.70
82311;BME280;72015;51.330;12.316;2024-01-06T10:33:26;99589.59;;;3.51;53.93
82311;BME280;72015;51.330;12.316;2024-01-06T10:37:50;99591.80;;;3.65;53.58
82311;BME280;72015;51.330;12.316;2024-01-06T10:42:14;99595.15;;;3.79;53.54
82311;BME280;72015;51.330;12.316;2024-01-06T10:46:38;99598.39;;;3.90;52.84
82311;BME280;72015;51.330;12.316;2024-01-06T10:51:02;99599.70;;;4.01;53.01
82311;BME280;72015;51.330;12.316;2024-01-06T10:55:26;99600.46;;;4.12;52.84
82311;BME280;72015;51.330;12.316;2024-01-06T10:59:51;99598.71;;;4.24;52.48
82311;BME280;72015;51.330;12.316;2024-01-06T11:04:14;99598.60;;;4.35;52.46
82311;BME280;72015;51.330;12.316;2024-01-06T11:21:50;99594.48;;;4.59;52.83
82311;BME280;72015;51.330;12.316;2024-01-06T11:26:14;99593.38;;;4.62;53.22
82311;BME280;72015;51.330;12.316;2024-01-06T11:30:38;99592.38;;;4.63;53.05
82311;BME280;72015;51.330;12.316;2024-01-06T11:35:06;99593.01;;;4.65;52.98
82311;BME280;72015;51.330;12.316;2024-01-06T11:43:50;99594.05;;;4.69;52.11
82311;BME280;72015;51.330;12.316;2024-01-06T11:48:14;99593.31;;;4.74;52.24
82311;BME280;72015;51.330;12.316;2024-01-06T11:52:38;99593.11;;;4.78;52.22
82311;BME280;72015;51.330;12.316;2024-01-06T11:57:02;99592.77;;;4.79;51.73
82311;BME280;72015;51.330;12.316;2024-01-06T12:01:26;99593.44;;;4.78;51.86
82311;BME280;72015;51.330;12.316;2024-01-06T12:10:14;99594.16;;;4.87;51.50
82311;BME280;72015;51.330;12.316;2024-01-06T12:14:38;99596.56;;;4.86;52.14
82311;BME280;72015;51.330;12.316;2024-01-06T12:19:02;99600.64;;;4.83;52.46
82311;BME280;72015;51.330;12.316;2024-01-06T12:23:27;99605.80;;;4.73;53.20
82311;BME280;72015;51.330;12.316;2024-01-06T12:27:51;99612.41;;;4.66;53.01
82311;BME280;72015;51.330;12.316;2024-01-06T12:32:14;99617.30;;;4.64;52.70
82311;BME280;72015;51.330;12.316;2024-01-06T12:36:39;99620.87;;;4.61;52.95
82311;BME280;72015;51.330;12.316;2024-01-06T12:41:05;99621.41;;;4.58;53.04
82311;BME280;72015;51.330;12.316;2024-01-06T12:45:26;99623.69;;;4.60;52.68
82311;BME280;72015;51.330;12.316;2024-01-06T12:49:50;99625.23;;;4.63;52.69
82311;BME280;72015;51.330;12.316;2024-01-06T12:54:14;99627.19;;;4.65;52.58
82311;BME280;72015;51.330;12.316;2024-01-06T12:58:38;99629.91;;;4.66;53.00
82311;BME280;72015;51.330;12.316;2024-01-06T13:03:02;99634.16;;;4.63;52.97
82311;BME280;72015;51.330;12.316;2024-01-06T13:07:26;99638.83;;;4.58;53.09
82311;BME280;72015;51.330;12.316;2024-01-06T13:11:50;99642.30;;;4.50;53.66
82311;BME280;72015;51.330;12.316;2024-01-06T13:16:14;99645.15;;;4.33;54.67
82311;BME280;72015;51.330;12.316;2024-01-06T13:20:39;99648.07;;;4.21;54.20
82311;BME280;72015;51.330;12.316;2024-01-06T13:25:03;99650.56;;;4.08;54.21
82311;BME280;72015;51.330;12.316;2024-01-06T13:29:26;99653.09;;;3.97;54.04
82311;BME280;72015;51.330;12.316;2024-01-06T13:33:50;99656.81;;;3.86;54.25
82311;BME280;72015;51.330;12.316;2024-01-06T13:38:14;99661.60;;;3.82;53.96
82311;BME280;72015;51.330;12.316;2024-01-06T13:42:38;99665.91;;;3.78;54.00
82311;BME280;72015;51.330;12.316;2024-01-06T13:47:03;99671.41;;;3.69;54.37
82311;BME280;72015;51.330;12.316;2024-01-06T13:51:26;99677.06;;;3.61;54.44
82311;BME280;72015;51.330;12.316;2024-01-06T13:55:50;99681.87;;;3.56;54.66
82311;BME280;72015;51.330;12.316;2024-01-06T14:00:15;99686.70;;;3.47;55.46
82311;BME280;72015;51.330;12.316;2024-01-06T14:04:38;99693.16;;;3.40;55.10
82311;BME280;72015;51.330;12.316;2024-01-06T14:09:02;99701.09;;;3.35;55.43
82311;BME280;72015;51.330;12.316;2024-01-06T14:13:26;99708.53;;;3.24;56.28
82311;BME280;72015;51.330;12.316;2024-01-06T14:17:50;99715.14;;;3.18;56.02
82311;BME280;72015;51.330;12.316;2024-01-06T14:22:14;99719.69;;;3.13;56.23
82311;BME280;72015;51.330;12.316;2024-01-06T14:26:38;99724.14;;;3.09;56.21
82311;BME280;72015;51.330;12.316;2024-01-06T14:31:03;99728.60;;;3.05;56.32
82311;BME280;72015;51.330;12.316;2024-01-06T14:35:26;99733.23;;;3.01;56.71
82311;BME280;72015;51.330;12.316;2024-01-06T14:39:50;99737.86;;;2.91;57.11
82311;BME280;72015;51.330;12.316;2024-01-06T14:44:14;99742.16;;;2.83;56.90
82311;BME280;72015;51.330;12.316;2024-01-06T14:48:38;99747.27;;;2.79;56.58
82311;BME280;72015;51.330;12.316;2024-01-06T14:53:03;99751.47;;;2.77;56.52
82311;BME280;72015;51.330;12.316;2024-01-06T14:57:26;99755.84;;;2.72;56.87
82311;BME280;72015;51.330;12.316;2024-01-06T15:01:50;99761.91;;;2.66;57.03
82311;BME280;72015;51.330;12.316;2024-01-06T15:06:14;99766.85;;;2.63;56.54
82311;BME280;72015;51.330;12.316;2024-01-06T15:10:38;99772.61;;;2.58;56.60
82311;BME280;72015;51.330;12.316;2024-01-06T15:15:03;99777.46;;;2.52;56.91
82311;BME280;72015;51.330;12.316;2024-01-06T15:19:26;99781.83;;;2.52;55.96
82311;BME280;72015;51.330;12.316;2024-01-06T15:23:50;99785.61;;;2.55;55.75
82311;BME280;72015;51.330;12.316;2024-01-06T15:28:14;99789.64;;;2.52;56.16
82311;BME280;72015;51.330;12.316;2024-01-06T15:32:40;99794.05;;;2.47;56.30
82311;BME280;72015;51.330;12.316;2024-01-06T15:37:03;99800.05;;;2.39;56.90
82311;BME280;72015;51.330;12.316;2024-01-06T15:41:26;99805.97;;;2.31;57.29
82311;BME280;72015;51.330;12.316;2024-01-06T15:45:51;99810.64;;;2.25;57.28
82311;BME280;72015;51.330;12.316;2024-01-06T15:50:14;99814.34;;;2.23;57.10
82311;BME280;72015;51.330;12.316;2024-01-06T15:54:38;99818.78;;;2.23;57.16
82311;BME280;72015;51.330;12.316;2024-01-06T15:59:02;99822.74;;;2.24;56.78
82311;BME280;72015;51.330;12.316;2024-01-06T16:03:26;99825.54;;;2.31;55.92
82311;BME280;72015;51.330;12.316;2024-01-06T16:07:50;99829.24;;;2.32;56.70
82311;BME280;72015;51.330;12.316;2024-01-06T16:12:14;99834.27;;;2.33;56.68
82311;BME280;72015;51.330;12.316;2024-01-06T16:16:38;99839.03;;;2.32;57.07
82311;BME280;72015;51.330;12.316;2024-01-06T16:21:03;99842.90;;;2.31;56.70
82311;BME280;72015;51.330;12.316;2024-01-06T16:25:26;99846.84;;;2.31;56.66
82311;BME280;72015;51.330;12.316;2024-01-06T16:29:50;99850.05;;;2.31;56.43
82311;BME280;72015;51.330;12.316;2024-01-06T16:34:15;99852.44;;;2.32;56.35
82311;BME280;72015;51.330;12.316;2024-01-06T16:38:38;99853.59;;;2.34;56.00
82311;BME280;72015;51.330;12.316;2024-01-06T16:43:02;99855.08;;;2.38;55.93
82311;BME280;72015;51.330;12.316;2024-01-06T16:47:26;99858.37;;;2.39;56.24
82311;BME280;72015;51.330;12.316;2024-01-06T16:51:50;99863.46;;;2.33;56.97
82311;BME280;72015;51.330;12.316;2024-01-06T16:56:14;99868.78;;;2.21;57.88
82311;BME280;72015;51.330;12.316;2024-01-06T17:00:38;99873.41;;;2.11;58.00
82311;BME280;72015;51.330;12.316;2024-01-06T17:05:03;99877.73;;;2.03;58.20
82311;BME280;72015;51.330;12.316;2024-01-06T17:09:26;99880.02;;;1.96;58.23
82311;BME280;72015;51.330;12.316;2024-01-06T17:13:50;99882.37;;;1.90;58.51
82311;BME280;72015;51.330;12.316;2024-01-06T17:18:14;99885.13;;;1.82;58.52
82311;BME280;72015;51.330;12.316;2024-01-06T17:22:38;99887.58;;;1.77;58.77
82311;BME280;72015;51.330;12.316;2024-01-06T17:27:02;99890.91;;;1.69;59.46
82311;BME280;72015;51.330;12.316;2024-01-06T17:31:26;99894.83;;;1.64;58.75
82311;BME280;72015;51.330;12.316;2024-01-06T17:35:50;99899.66;;;1.62;58.53
82311;BME280;72015;51.330;12.316;2024-01-06T17:40:14;99905.38;;;1.58;58.73
82311;BME280;72015;51.330;12.316;2024-01-06T17:44:38;99911.08;;;1.55;58.66
82311;BME280;72015;51.330;12.316;2024-01-06T17:49:03;99917.82;;;1.54;58.55
82311;BME280;72015;51.330;12.316;2024-01-06T17:53:27;99924.77;;;1.57;57.91
82311;BME280;72015;51.330;12.316;2024-01-06T17:57:51;99931.87;;;1.62;57.60
82311;BME280;72015;51.330;12.316;2024-01-06T18:02:15;99937.95;;;1.62;57.92
82311;BME280;72015;51.330;12.316;2024-01-06T18:06:39;99943.12;;;1.61;58.00
82311;BME280;72015;51.330;12.316;2024-01-06T18:11:03;99947.89;;;1.62;57.75
82311;BME280;72015;51.330;12.316;2024-01-06T18:15:26;99952.82;;;1.62;57.98
82311;BME280;72015;51.330;12.316;2024-01-06T18:19:50;99957.42;;;1.62;57.71
82311;BME280;72015;51.330;12.316;2024-01-06T18:24:14;99961.42;;;1.58;58.56
82311;BME280;72015;51.330;12.316;2024-01-06T18:28:38;99967.17;;;1.58;57.97
82311;BME280;72015;51.330;12.316;2024-01-06T18:33:03;99971.59;;;1.56;57.76
82311;BME280;72015;51.330;12.316;2024-01-06T18:37:26;99975.06;;;1.52;57.94
82311;BME280;72015;51.330;12.316;2024-01-06T18:41:50;99979.06;;;1.55;57.28
82311;BME280;72015;51.330;12.316;2024-01-06T18:46:14;99983.72;;;1.63;56.65
82311;BME280;72015;51.330;12.316;2024-01-06T18:50:38;99988.59;;;1.67;57.03
82311;BME280;72015;51.330;12.316;2024-01-06T18:55:03;99992.91;;;1.73;56.62
82311;BME280;72015;51.330;12.316;2024-01-06T18:59:26;99997.69;;;1.75;56.87
82311;BME280;72015;51.330;12.316;2024-01-06T19:03:50;100003.36;;;1.75;56.98
82311;BME280;72015;51.330;12.316;2024-01-06T19:08:14;100007.81;;;1.77;56.56
82311;BME280;72015;51.330;12.316;2024-01-06T19:12:38;100010.55;;;1.79;56.56
82311;BME280;72015;51.330;12.316;2024-01-06T19:17:03;100015.23;;;1.81;57.02
82311;BME280;72015;51.330;12.316;2024-01-06T19:21:26;100018.92;;;1.79;57.20
82311;BME280;72015;51.330;12.316;2024-01-06T19:25:50;100024.69;;;1.70;57.71
82311;BME280;72015;51.330;12.316;2024-01-06T19:30:15;100030.65;;;1.64;57.79
82311;BME280;72015;51.330;12.316;2024-01-06T19:34:38;100036.35;;;1.51;58.67
82311;BME280;72015;51.330;12.316;2024-01-06T19:39:02;100041.83;;;1.38;58.85
82311;BME280;72015;51.330;12.316;2024-01-06T19:43:26;100046.75;;;1.29;58.95
82311;BME280;72015;51.330;12.316;2024-01-06T19:47:50;100051.74;;;1.27;58.48
82311;BME280;72015;51.330;12.316;2024-01-06T19:52:15;100055.95;;;1.30;57.59
82311;BME280;72015;51.330;12.316;2024-01-06T19:56:39;100060.13;;;1.27;57.70
82311;BME280;72015;51.330;12.316;2024-01-06T20:01:03;100063.98;;;1.19;58.03
82311;BME280;72015;51.330;12.316;2024-01-06T20:05:27;100068.05;;;1.15;57.56
82311;BME280;72015;51.330;12.316;2024-01-06T20:09:51;100071.95;;;1.12;57.42
82311;BME280;72015;51.330;12.316;2024-01-06T20:14:15;100076.53;;;1.10;57.24
82311;BME280;72015;51.330;12.316;2024-01-06T20:18:38;100080.97;;;1.11;56.99
82311;BME280;72015;51.330;12.316;2024-01-06T20:23:03;100084.89;;;1.09;57.17
82311;BME280;72015;51.330;12.316;2024-01-06T20:27:27;100087.30;;;1.04;57.80
82311;BME280;72015;51.330;12.316;2024-01-06T20:31:51;100089.70;;;0.98;57.78
82311;BME280;72015;51.330;12.316;2024-01-06T20:36:15;100090.26;;;0.92;57.88
82311;BME280;72015;51.330;12.316;2024-01-06T20:40:39;100091.74;;;0.84;58.24
82311;BME280;72015;51.330;12.316;2024-01-06T20:45:03;100092.40;;;0.79;57.83
82311;BME280;72015;51.330;12.316;2024-01-06T20:49:27;100093.14;;;0.66;58.78
82311;BME280;72015;51.330;12.316;2024-01-06T20:53:51;100094.05;;;0.55;58.69
82311;BME280;72015;51.330;12.316;2024-01-06T20:58:15;100095.45;;;0.50;58.40
82311;BME280;72015;51.330;12.316;2024-01-06T21:02:39;100096.62;;;0.45;58.06
82311;BME280;72015;51.330;12.316;2024-01-06T21:07:03;100098.80;;;0.43;58.03
82311;BME280;72015;51.330;12.316;2024-01-06T21:11:27;100098.82;;;0.45;57.49
82311;BME280;72015;51.330;12.316;2024-01-06T21:15:51;100099.69;;;0.42;58.21
82311;BME280;72015;51.330;12.316;2024-01-06T21:20:15;100100.97;;;0.40;57.83
82311;BME280;72015;51.330;12.316;2024-01-06T21:24:39;100102.03;;;0.39;57.33
82311;BME280;72015;51.330;12.316;2024-01-06T21:29:03;100103.20;;;0.32;58.11
82311;BME280;72015;51.330;12.316;2024-01-06T21:33:27;100105.00;;;0.31;57.74
82311;BME280;72015;51.330;12.316;2024-01-06T21:37:51;100107.03;;;0.30;58.56
82311;BME280;72015;51.330;12.316;2024-01-06T21:42:15;100109.28;;;0.27;57.42
82311;BME280;72015;51.330;12.316;2024-01-06T21:46:38;100111.99;;;0.33;56.59
82311;BME280;72015;51.330;12.316;2024-01-06T21:51:03;100113.86;;;0.37;56.57
82311;BME280;72015;51.330;12.316;2024-01-06T21:55:27;100117.30;;;0.41;56.46
82311;BME280;72015;51.330;12.316;2024-01-06T21:59:51;100120.47;;;0.45;56.12
82311;BME280;72015;51.330;12.316;2024-01-06T22:04:15;100123.78;;;0.40;57.12
82311;BME280;72015;51.330;12.316;2024-01-06T22:08:39;100128.61;;;0.31;57.66
82311;BME280;72015;51.330;12.316;2024-01-06T22:13:03;100131.58;;;0.21;58.57
82311;BME280;72015;51.330;12.316;2024-01-06T22:17:27;100135.22;;;0.07;58.90
82311;BME280;72015;51.330;12.316;2024-01-06T22:21:51;100139.03;;;-0.06;59.15
82311;BME280;72015;51.330;12.316;2024-01-06T22:26:14;100143.02;;;-0.20;59.30
82311;BME280;72015;51.330;12.316;2024-01-06T22:30:39;100146.62;;;-0.30;59.41
82311;BME280;72015;51.330;12.316;2024-01-06T22:35:03;100150.12;;;-0.36;58.52
82311;BME280;72015;51.330;12.316;2024-01-06T22:39:27;100154.38;;;-0.41;58.03
82311;BME280;72015;51.330;12.316;2024-01-06T22:43:51;100158.81;;;-0.45;57.70
82311;BME280;72015;51.330;12.316;2024-01-06T22:48:15;100162.50;;;-0.40;56.91
82311;BME280;72015;51.330;12.316;2024-01-06T22:52:39;100163.92;;;-0.39;57.36
82311;BME280;72015;51.330;12.316;2024-01-06T22:57:03;100166.28;;;-0.35;57.04
82311;BME280;72015;51.330;12.316;2024-01-06T23:01:27;100169.70;;;-0.36;57.25
82311;BME280;72015;51.330;12.316;2024-01-06T23:05:51;100174.55;;;-0.40;57.34
82311;BME280;72015;51.330;12.316;2024-01-06T23:10:15;100179.69;;;-0.41;57.08
82311;BME280;72015;51.330;12.316;2024-01-06T23:14:39;100184.64;;;-0.47;57.62
82311;BME280;72015;51.330;12.316;2024-01-06T23:19:03;100189.95;;;-0.48;56.82
82311;BME280;72015;51.330;12.316;2024-01-06T23:23:27;100194.19;;;-0.50;57.14
82311;BME280;72015;51.330;12.316;2024-01-06T23:27:51;100198.89;;;-0.52;56.95
82311;BME280;72015;51.330;12.316;2024-01-06T23:32:15;100205.41;;;-0.54;56.77
82311;BME280;72015;51.330;12.316;2024-01-06T23:36:39;100211.24;;;-0.53;56.68
82311;BME280;72015;51.330;12.316;2024-01-06T23:41:03;100216.18;;;-0.51;56.55